Time;durP1;ratioP1;P1;durP2;ratioP2;P2;SDS_P1;SDS_P2;PMS_P1;PMS_P2;Temp;Humidity;BMP_temperature;BMP_pressure;BME280_temperature;BME280_humidity;BME280_pressure;Samples;Min_cycle;Max_cycle;Signal;HPM_P1;HPM_P2
2022/05/05 00:01:34;;;;;;;24.80;13.82;;;;;;;;;;6236202;28;20306;-57
2022/05/05 00:04:35;;;;;;;28.27;14.55;;;;;;;;;;6236260;28;20466;-59
2022/05/05 00:07:36;;;;;;;34.40;16.63;;;;;;;;;;6235772;28;20045;-61
2022/05/05 00:17:14;;;;;;;27.63;15.70;;;;;;;;;;6238432;28;20045;-59
2022/05/05 00:20:15;;;;;;;29.65;15.40;;;;;;;;;;6235082;28;20049;-58
2022/05/05 00:23:16;;;;;;;28.65;15.27;;;;;;;;;;6236652;28;20063;-58
2022/05/05 00:26:16;;;;;;;28.67;15.82;;;;;;;;;;6237964;28;20049;-56
2022/05/05 00:29:17;;;;;;;33.08;17.35;;;;;;;;;;6235594;28;20416;-62
2022/05/05 00:32:18;;;;;;;29.58;15.20;;;;;;;;;;6236147;28;20041;-58
2022/05/05 00:35:18;;;;;;;30.30;15.90;;;;;;;;;;6237445;28;20144;-56
2022/05/05 00:38:19;;;;;;;28.73;15.75;;;;;;;;;;6236096;28;20080;-57
2022/05/05 00:41:20;;;;;;;29.55;15.68;;;;;;;;;;6237540;28;20045;-58
2022/05/05 00:44:20;;;;;;;31.05;15.75;;;;;;;;;;6235279;28;20540;-58
2022/05/05 00:47:22;;;;;;;31.40;15.00;;;;;;;;;;6236895;28;20071;-57
2022/05/05 00:50:23;;;;;;;29.95;15.25;;;;;;;;;;6238133;28;20124;-57
2022/05/05 00:53:25;;;;;;;28.92;15.80;;;;;;;;;;6237565;28;20033;-56
2022/05/05 00:56:27;;;;;;;29.13;15.77;;;;;;;;;;6236746;28;20141;-56
2022/05/05 00:59:28;;;;;;;29.40;16.60;;;;;;;;;;6234553;28;20038;-56
2022/05/05 01:02:32;;;;;;;29.83;15.88;;;;;;;;;;6235513;28;20447;-57
2022/05/05 01:05:32;;;;;;;29.15;16.00;;;;;;;;;;6236628;28;20467;-58
2022/05/05 01:08:33;;;;;;;29.45;15.38;;;;;;;;;;6237405;28;20072;-58
2022/05/05 01:11:34;;;;;;;29.15;15.48;;;;;;;;;;6237448;28;20140;-59
2022/05/05 01:14:35;;;;;;;27.45;14.90;;;;;;;;;;6238608;28;20144;-57
2022/05/05 01:17:36;;;;;;;28.15;15.68;;;;;;;;;;6236220;28;20056;-58
2022/05/05 01:20:48;;;;;;;32.33;17.63;;;;;;;;;;6235071;28;20463;-58
2022/05/05 01:23:49;;;;;;;31.38;18.00;;;;;;;;;;6234100;28;20572;-58
2022/05/05 01:30:09;;;;;;;31.92;17.95;;;;;;;;;;6233801;28;20050;-58
2022/05/05 01:33:14;;;;;;;34.40;18.48;;;;;;;;;;6235564;28;20089;-57
2022/05/05 01:36:15;;;;;;;31.27;17.27;;;;;;;;;;6236525;28;20149;-59
2022/05/05 01:39:15;;;;;;;31.63;17.88;;;;;;;;;;6237547;28;20393;-58
2022/05/05 01:42:16;;;;;;;31.52;18.42;;;;;;;;;;6236646;28;20088;-56
2022/05/05 01:45:17;;;;;;;34.50;18.70;;;;;;;;;;6235278;28;20053;-60
2022/05/05 01:48:17;;;;;;;31.83;18.35;;;;;;;;;;6235543;28;20052;-58
2022/05/05 01:51:18;;;;;;;34.25;17.85;;;;;;;;;;6236199;28;20139;-56
2022/05/05 01:54:18;;;;;;;35.53;19.42;;;;;;;;;;6216533;28;20489;-59
2022/05/05 01:57:19;;;;;;;35.35;18.65;;;;;;;;;;6235285;28;20606;-61
2022/05/05 02:00:20;;;;;;;31.25;17.60;;;;;;;;;;6234644;28;20041;-57
2022/05/05 02:03:20;;;;;;;29.13;17.65;;;;;;;;;;6236031;28;20069;-57
2022/05/05 02:06:21;;;;;;;29.58;17.10;;;;;;;;;;6237976;28;20050;-56
2022/05/05 02:09:22;;;;;;;31.88;17.55;;;;;;;;;;6236840;28;20045;-57
2022/05/05 02:12:22;;;;;;;29.27;16.10;;;;;;;;;;6235680;28;20528;-57
2022/05/05 02:15:23;;;;;;;32.42;18.63;;;;;;;;;;6234015;28;20025;-58
2022/05/05 02:18:24;;;;;;;30.17;18.25;;;;;;;;;;6236473;28;20124;-58
2022/05/05 02:21:24;;;;;;;30.70;16.73;;;;;;;;;;6234396;28;20049;-56
2022/05/05 02:24:25;;;;;;;29.75;17.48;;;;;;;;;;6233622;28;20132;-57
2022/05/05 02:27:26;;;;;;;25.45;16.35;;;;;;;;;;6234079;28;20041;-58
2022/05/05 02:30:28;;;;;;;27.33;16.25;;;;;;;;;;6231038;28;20034;-57
2022/05/05 02:33:29;;;;;;;;;;;;;;;;;;6234452;28;20065;-57
2022/05/05 02:39:49;;;;;;;26.05;15.85;;;;;;;;;;6233148;28;20056;-57
2022/05/05 02:42:49;;;;;;;32.03;17.08;;;;;;;;;;6234037;28;20615;-57
2022/05/05 02:45:50;;;;;;;31.10;18.10;;;;;;;;;;6234057;28;20061;-58
2022/05/05 02:48:50;;;;;;;32.08;16.83;;;;;;;;;;6234754;28;20071;-57
2022/05/05 02:51:51;;;;;;;30.52;16.25;;;;;;;;;;6233754;28;20045;-57
2022/05/05 02:54:52;;;;;;;31.73;17.38;;;;;;;;;;6234155;28;20055;-58
2022/05/05 02:57:52;;;;;;;31.08;17.27;;;;;;;;;;6233282;28;20184;-57
2022/05/05 03:00:53;;;;;;;36.85;17.45;;;;;;;;;;6234150;28;20091;-58
2022/05/05 03:03:53;;;;;;;28.95;17.42;;;;;;;;;;6235054;28;20041;-59
2022/05/05 03:06:54;;;;;;;29.33;17.67;;;;;;;;;;6236319;28;20140;-58
2022/05/05 03:09:55;;;;;;;30.40;18.15;;;;;;;;;;6241022;28;20511;-59
2022/05/05 03:12:56;;;;;;;32.97;18.70;;;;;;;;;;6240920;28;20056;-58
2022/05/05 03:15:56;;;;;;;33.13;18.98;;;;;;;;;;6241367;28;20586;-58
2022/05/05 03:18:57;;;;;;;30.83;18.73;;;;;;;;;;6239926;28;20103;-57
2022/05/05 03:21:58;;;;;;;36.15;20.23;;;;;;;;;;6238448;28;20049;-56
2022/05/05 03:24:58;;;;;;;33.80;20.00;;;;;;;;;;6239319;28;20136;-55
2022/05/05 03:27:59;;;;;;;34.33;19.85;;;;;;;;;;6239162;28;20056;-59
2022/05/05 03:30:59;;;;;;;26.73;17.42;;;;;;;;;;6240704;28;20051;-60
2022/05/05 03:34:00;;;;;;;26.42;16.92;;;;;;;;;;6240855;28;20045;-60
2022/05/05 03:37:01;;;;;;;33.08;18.50;;;;;;;;;;6241272;28;20075;-57
2022/05/05 03:40:02;;;;;;;33.13;19.65;;;;;;;;;;6239414;28;20754;-58
2022/05/05 03:43:03;;;;;;;35.40;20.70;;;;;;;;;;6239853;28;20512;-59
2022/05/05 03:46:04;;;;;;;35.47;19.10;;;;;;;;;;6238004;28;20041;-58
2022/05/05 03:49:04;;;;;;;37.85;21.45;;;;;;;;;;6237660;28;20067;-58
2022/05/05 03:52:06;;;;;;;40.42;20.33;;;;;;;;;;6237247;28;20553;-58
2022/05/05 03:55:07;;;;;;;33.22;19.75;;;;;;;;;;6238039;28;20080;-56
2022/05/05 03:58:07;;;;;;;36.08;19.92;;;;;;;;;;6236449;28;20165;-58
2022/05/05 04:01:08;;;;;;;27.33;18.10;;;;;;;;;;6237209;28;20049;-58
2022/05/05 04:04:08;;;;;;;30.55;16.95;;;;;;;;;;6237581;28;20056;-58
2022/05/05 04:07:09;;;;;;;32.42;17.98;;;;;;;;;;6240055;28;20046;-56
2022/05/05 04:10:10;;;;;;;29.85;17.80;;;;;;;;;;6240622;28;20049;-57
2022/05/05 04:13:10;;;;;;;29.50;18.13;;;;;;;;;;6235877;28;20394;-58
2022/05/05 04:16:11;;;;;;;28.88;17.75;;;;;;;;;;6237841;28;20068;-58
2022/05/05 04:19:11;;;;;;;34.33;18.92;;;;;;;;;;6240076;28;20047;-59
2022/05/05 04:22:12;;;;;;;37.95;20.02;;;;;;;;;;6239091;28;20073;-57
2022/05/05 04:25:13;;;;;;;33.40;19.25;;;;;;;;;;6237505;28;20128;-58
2022/05/05 04:28:14;;;;;;;32.47;19.80;;;;;;;;;;6238195;28;20434;-56
2022/05/05 04:31:16;;;;;;;35.15;20.17;;;;;;;;;;6236003;28;20041;-57
2022/05/05 04:34:17;;;;;;;43.13;21.90;;;;;;;;;;6236405;28;20135;-58
2022/05/05 04:37:17;;;;;;;42.72;24.67;;;;;;;;;;6237387;28;20135;-58
2022/05/05 04:40:18;;;;;;;40.63;23.45;;;;;;;;;;6237759;28;20057;-59
2022/05/05 04:43:19;;;;;;;37.42;23.00;;;;;;;;;;6238908;28;20136;-56
2022/05/05 04:46:19;;;;;;;39.58;22.23;;;;;;;;;;6237328;28;20045;-66
2022/05/05 04:49:20;;;;;;;43.97;23.52;;;;;;;;;;6236461;28;20128;-56
2022/05/05 04:52:20;;;;;;;45.95;24.80;;;;;;;;;;6237364;28;20119;-56
2022/05/05 04:55:21;;;;;;;52.45;28.20;;;;;;;;;;6238454;28;20064;-58
2022/05/05 04:58:22;;;;;;;52.78;28.58;;;;;;;;;;6240244;28;20049;-59
2022/05/05 05:01:22;;;;;;;45.50;26.20;;;;;;;;;;6236015;28;20073;-62
2022/05/05 05:04:23;;;;;;;44.85;25.65;;;;;;;;;;6235526;28;20439;-58
2022/05/05 05:07:23;;;;;;;45.15;25.10;;;;;;;;;;6236098;28;20451;-58
2022/05/05 05:10:24;;;;;;;36.78;23.80;;;;;;;;;;6235778;28;20042;-58
2022/05/05 05:13:25;;;;;;;40.15;22.58;;;;;;;;;;6238041;28;20103;-58
2022/05/05 05:16:25;;;;;;;41.60;24.05;;;;;;;;;;6238392;28;20052;-58
2022/05/05 05:19:27;;;;;;;46.72;24.98;;;;;;;;;;6238399;28;20057;-58
2022/05/05 05:22:28;;;;;;;52.00;26.27;;;;;;;;;;6237243;28;20095;-58
2022/05/05 05:25:28;;;;;;;44.65;27.45;;;;;;;;;;6237007;28;20091;-58
2022/05/05 05:28:29;;;;;;;46.08;26.30;;;;;;;;;;6237150;28;20072;-58
2022/05/05 05:31:30;;;;;;;44.95;27.35;;;;;;;;;;6235242;28;20051;-58
2022/05/05 05:34:30;;;;;;;41.58;23.60;;;;;;;;;;6235782;28;20103;-59
2022/05/05 05:37:31;;;;;;;40.45;23.48;;;;;;;;;;6235771;28;20206;-59
2022/05/05 05:40:32;;;;;;;44.08;22.98;;;;;;;;;;6235481;28;20068;-62
2022/05/05 05:43:32;;;;;;;43.50;22.17;;;;;;;;;;6236482;28;20148;-59
2022/05/05 05:46:33;;;;;;;37.13;22.02;;;;;;;;;;6235824;28;20057;-58
2022/05/05 05:49:33;;;;;;;37.40;22.58;;;;;;;;;;6237492;28;20506;-59
2022/05/05 05:52:34;;;;;;;41.50;23.20;;;;;;;;;;6237377;28;20048;-59
2022/05/05 05:55:35;;;;;;;38.42;23.63;;;;;;;;;;6235880;28;20137;-57
2022/05/05 05:58:37;;;;;;;38.50;23.17;;;;;;;;;;6235264;28;20072;-58
2022/05/05 06:04:57;;;;;;;41.60;23.05;;;;;;;;;;6236380;28;20548;-58
2022/05/05 06:08:02;;;;;;;41.42;24.90;;;;;;;;;;6235511;28;20053;-59
2022/05/05 06:11:03;;;;;;;42.75;24.25;;;;;;;;;;6235804;28;20053;-58
2022/05/05 06:14:04;;;;;;;43.38;24.58;;;;;;;;;;6236752;28;20092;-58
2022/05/05 06:17:05;;;;;;;46.00;25.35;;;;;;;;;;6236987;28;20053;-59
2022/05/05 06:20:05;;;;;;;36.17;22.88;;;;;;;;;;6237882;28;20476;-58
2022/05/05 06:23:06;;;;;;;33.92;21.60;;;;;;;;;;6235868;28;20461;-58
2022/05/05 06:26:07;;;;;;;36.22;21.98;;;;;;;;;;6235715;28;20079;-58
2022/05/05 06:29:08;;;;;;;36.13;21.85;;;;;;;;;;6235596;28;20128;-61
2022/05/05 06:32:09;;;;;;;37.53;22.48;;;;;;;;;;6234551;28;20122;-59
2022/05/05 06:35:10;;;;;;;36.63;21.52;;;;;;;;;;6233776;28;20046;-59
2022/05/05 06:38:11;;;;;;;35.38;22.50;;;;;;;;;;6233270;28;20552;-62
2022/05/05 06:41:12;;;;;;;34.17;21.23;;;;;;;;;;6234996;28;20136;-59
2022/05/05 06:44:12;;;;;;;36.42;21.33;;;;;;;;;;6240141;28;20045;-59
2022/05/05 06:47:13;;;;;;;34.60;20.38;;;;;;;;;;6238196;28;20050;-59
2022/05/05 06:50:16;;;;;;;33.30;18.95;;;;;;;;;;6239008;28;20049;-58
2022/05/05 06:53:16;;;;;;;42.22;22.05;;;;;;;;;;6238694;28;20073;-60
2022/05/05 06:56:17;;;;;;;43.78;21.73;;;;;;;;;;6240081;28;20419;-60
2022/05/05 06:59:17;;;;;;;43.22;21.30;;;;;;;;;;6242357;28;20059;-60
2022/05/05 07:02:18;;;;;;;34.70;19.55;;;;;;;;;;6241482;28;20069;-60
2022/05/05 07:05:27;;;;;;;29.85;17.55;;;;;;;;;;6239276;28;20108;-60
2022/05/05 07:10:52;;;;;;;28.95;17.88;;;;;;;;;;6237584;28;21138;-60
2022/05/05 07:11:48;;;;;;;25.17;16.13;;;;;;;;;;6235990;28;20527;-61
2022/05/05 07:14:49;;;;;;;26.90;15.57;;;;;;;;;;6237186;28;20155;-60
2022/05/05 07:17:50;;;;;;;29.67;17.35;;;;;;;;;;6236639;28;20041;-60
2022/05/05 07:20:50;;;;;;;24.70;15.50;;;;;;;;;;6238106;28;20467;-60
2022/05/05 07:23:51;;;;;;;30.65;16.30;;;;;;;;;;6236787;28;20099;-61
2022/05/05 07:26:51;;;;;;;25.45;15.43;;;;;;;;;;6236681;28;20049;-61
2022/05/05 07:29:52;;;;;;;25.98;14.05;;;;;;;;;;6219809;28;20080;-60
2022/05/05 07:32:53;;;;;;;18.70;11.73;;;;;;;;;;6238468;28;20049;-59
2022/05/05 07:35:53;;;;;;;24.90;13.23;;;;;;;;;;6236651;28;20045;-59
2022/05/05 07:38:54;;;;;;;21.63;11.65;;;;;;;;;;6237551;28;20137;-59
2022/05/05 07:41:55;;;;;;;23.60;12.38;;;;;;;;;;6238299;28;20536;-61
2022/05/05 07:44:55;;;;;;;23.42;12.40;;;;;;;;;;6237769;28;20050;-59
2022/05/05 07:48:00;;;;;;;20.65;12.55;;;;;;;;;;6238368;28;20141;-60
2022/05/05 07:51:00;;;;;;;23.63;12.93;;;;;;;;;;6238774;28;20041;-59
2022/05/05 07:57:22;;;;;;;19.98;10.73;;;;;;;;;;6238897;28;20492;-60
2022/05/05 08:00:23;;;;;;;17.27;10.95;;;;;;;;;;6237686;28;20520;-59
2022/05/05 08:03:24;;;;;;;13.43;7.13;;;;;;;;;;6237697;28;20034;-60
2022/05/05 08:06:24;;;;;;;14.73;8.68;;;;;;;;;;6238117;28;20052;-59
2022/05/05 08:09:25;;;;;;;22.48;11.32;;;;;;;;;;6236804;28;20536;-61
2022/05/05 08:12:26;;;;;;;20.52;10.70;;;;;;;;;;6220330;28;20061;-60
2022/05/05 08:15:26;;;;;;;11.02;8.10;;;;;;;;;;6228153;28;20052;-60
2022/05/05 08:18:27;;;;;;;15.20;8.23;;;;;;;;;;6228933;28;20445;-60
2022/05/05 08:21:28;;;;;;;12.40;8.43;;;;;;;;;;6225694;28;20045;-59
2022/05/05 08:31:07;;;;;;;11.20;7.55;;;;;;;;;;6221850;28;20211;-64
2022/05/05 08:34:08;;;;;;;11.60;7.65;;;;;;;;;;6241876;28;20051;-59
2022/05/05 08:37:09;;;;;;;12.15;6.65;;;;;;;;;;6226093;28;20045;-63
2022/05/05 08:40:12;;;;;;;8.40;6.25;;;;;;;;;;6224907;28;20123;-60
2022/05/05 08:43:13;;;;;;;9.20;6.25;;;;;;;;;;6226328;28;20148;-62
2022/05/05 08:46:15;;;;;;;8.45;6.25;;;;;;;;;;6227191;28;20045;-61
2022/05/05 08:49:25;;;;;;;11.25;6.38;;;;;;;;;;6226973;28;20069;-59
2022/05/05 08:52:33;;;;;;;13.32;6.88;;;;;;;;;;6227434;28;20053;-62
2022/05/05 08:55:34;;;;;;;9.68;7.15;;;;;;;;;;6209681;28;20073;-64
2022/05/05 08:58:36;;;;;;;11.83;8.03;;;;;;;;;;6225871;28;20041;-62
2022/05/05 09:01:41;;;;;;;15.75;9.77;;;;;;;;;;6225471;28;20692;-62
2022/05/05 09:04:44;;;;;;;15.60;10.95;;;;;;;;;;6224170;28;21076;-65
2022/05/05 09:07:50;;;;;;;17.65;11.30;;;;;;;;;;6227419;28;20552;-65
2022/05/05 09:10:54;;;;;;;16.58;10.30;;;;;;;;;;6223305;28;20033;-63
2022/05/05 09:13:54;;;;;;;14.38;8.73;;;;;;;;;;6226274;28;20140;-59
2022/05/05 09:17:03;;;;;;;11.75;7.82;;;;;;;;;;6227111;28;20037;-63
2022/05/05 09:20:05;;;;;;;14.70;9.13;;;;;;;;;;6222780;28;20096;-65
2022/05/05 09:23:06;;;;;;;14.38;9.10;;;;;;;;;;6224347;28;20734;-60
2022/05/05 09:26:10;;;;;;;12.85;8.05;;;;;;;;;;6225813;28;20061;-64
2022/05/05 09:29:20;;;;;;;13.43;8.25;;;;;;;;;;6226241;28;20056;-61
2022/05/05 09:32:20;;;;;;;14.02;8.18;;;;;;;;;;6227841;28;20472;-60
2022/05/05 09:35:22;;;;;;;13.18;8.68;;;;;;;;;;6228643;28;20053;-58
2022/05/05 09:39:00;;;;;;;11.02;7.40;;;;;;;;;;6348441;27;20136;-65
2022/05/05 09:42:01;;;;;;;11.55;7.35;;;;;;;;;;6346574;27;20165;-63
2022/05/05 09:45:21;;;;;;;8.20;6.57;;;;;;;;;;6348126;27;20047;-63
2022/05/05 09:48:23;;;;;;;9.18;6.60;;;;;;;;;;6347146;27;20082;-66
2022/05/05 09:51:24;;;;;;;;;;;;;;;;;;6346965;27;20096;-61
2022/05/05 09:57:45;;;;;;;11.40;7.35;;;;;;;;;;6349294;28;20568;-62
2022/05/05 10:00:58;;;;;;;10.55;7.68;;;;;;;;;;6345112;27;20047;-66
2022/05/05 10:04:03;;;;;;;10.50;7.70;;;;;;;;;;6346011;27;20508;-64
2022/05/05 10:07:04;;;;;;;9.30;6.60;;;;;;;;;;6346898;27;20829;-60
2022/05/05 10:10:07;;;;;;;7.90;5.77;;;;;;;;;;6347197;27;20047;-66
2022/05/05 10:13:09;;;;;;;9.50;5.72;;;;;;;;;;6349639;27;20055;-63
2022/05/05 10:16:09;;;;;;;7.65;5.10;;;;;;;;;;6351084;27;20059;-60
2022/05/05 10:19:10;;;;;;;7.20;5.07;;;;;;;;;;6343168;27;20087;-61
2022/05/05 10:22:18;;;;;;;7.75;5.15;;;;;;;;;;6345928;28;20545;-63
2022/05/05 10:25:26;;;;;;;6.88;4.50;;;;;;;;;;6348240;27;20608;-63
2022/05/05 10:28:40;;;;;;;6.43;4.47;;;;;;;;;;6347841;28;20051;-61
2022/05/05 10:31:42;;;;;;;5.88;4.18;;;;;;;;;;6345268;27;20052;-63
2022/05/05 10:34:47;;;;;;;5.15;3.72;;;;;;;;;;6349137;27;20047;-61
2022/05/05 10:37:48;;;;;;;5.40;3.47;;;;;;;;;;6349366;27;20055;-60
2022/05/05 10:40:49;;;;;;;5.67;3.60;;;;;;;;;;6345358;28;20506;-61
2022/05/05 10:44:15;;;;;;;5.53;3.60;;;;;;;;;;6347700;28;20070;-62
2022/05/05 10:47:16;;;;;;;7.57;3.58;;;;;;;;;;6347129;27;20163;-67
2022/05/05 10:50:43;;;;;;;5.93;3.50;;;;;;;;;;6328662;28;20716;-63
2022/05/05 10:53:44;;;;;;;5.35;3.65;;;;;;;;;;6327977;28;20741;-64
2022/05/05 10:56:45;;;;;;;;;;;;;;;;;;6330236;28;20044;-62
2022/05/05 11:00:04;;;;;;;6.78;4.47;;;;;;;;;;6326215;28;19937;-64
2022/05/05 11:03:18;;;;;;;5.95;3.92;;;;;;;;;;6328304;28;20131;-64
2022/05/05 11:06:18;;;;;;;7.40;4.18;;;;;;;;;;6326240;28;20055;-59
2022/05/05 11:09:32;;;;;;;8.33;4.17;;;;;;;;;;6326806;27;21185;-62
2022/05/05 11:12:35;;;;;;;6.30;4.32;;;;;;;;;;6328371;27;20058;-62
2022/05/05 11:22:49;;;;;;;6.35;5.07;;;;;;;;;;6329595;28;20059;-61
2022/05/05 11:25:50;;;;;;;6.60;4.37;;;;;;;;;;6330110;27;20142;-63
2022/05/05 11:28:51;;;;;;;9.60;5.30;;;;;;;;;;6327631;27;20623;-65
2022/05/05 11:31:56;;;;;;;6.73;4.80;;;;;;;;;;6327153;28;20036;-65
2022/05/05 11:34:57;;;;;;;9.00;4.88;;;;;;;;;;6328697;27;20071;-65
2022/05/05 11:37:59;;;;;;;8.57;5.30;;;;;;;;;;6327036;28;20052;-64
2022/05/05 11:41:04;;;;;;;8.80;5.45;;;;;;;;;;6324098;27;20604;-62
2022/05/05 11:44:20;;;;;;;8.73;4.88;;;;;;;;;;6326875;28;20047;-62
2022/05/05 11:47:22;;;;;;;8.00;5.35;;;;;;;;;;6325576;27;20143;-59
2022/05/05 11:50:23;;;;;;;8.40;5.20;;;;;;;;;;6325070;27;20040;-65
2022/05/05 11:53:28;;;;;;;6.90;5.00;;;;;;;;;;6323816;28;20078;-61
2022/05/05 11:56:29;;;;;;;6.70;4.90;;;;;;;;;;6325283;28;20104;-61
2022/05/05 12:02:50;;;;;;;7.45;4.70;;;;;;;;;;6326777;27;20059;-60
2022/05/05 12:05:53;;;;;;;8.77;5.10;;;;;;;;;;6325915;28;20449;-60
2022/05/05 12:08:55;;;;;;;7.03;4.78;;;;;;;;;;6321490;28;20054;-63
2022/05/05 12:11:56;;;;;;;7.90;5.03;;;;;;;;;;6323532;27;20127;-61
2022/05/05 12:14:59;;;;;;;7.40;5.00;;;;;;;;;;6324317;28;20055;-62
2022/05/05 12:18:00;;;;;;;9.38;4.65;;;;;;;;;;6324073;28;21177;-62
2022/05/05 12:21:00;;;;;;;9.77;4.70;;;;;;;;;;6323100;28;20126;-60
2022/05/05 12:24:03;;;;;;;5.80;3.80;;;;;;;;;;6324929;28;20051;-60
2022/05/05 12:27:08;;;;;;;4.95;3.80;;;;;;;;;;6323255;27;20716;-66
2022/05/05 12:30:09;;;;;;;6.20;4.10;;;;;;;;;;6320190;27;20511;-60
2022/05/05 12:33:13;;;;;;;7.03;4.20;;;;;;;;;;6320949;28;20058;-59
2022/05/05 12:36:14;;;;;;;6.65;4.50;;;;;;;;;;6323316;28;20136;-60
2022/05/05 12:39:18;;;;;;;5.13;3.67;;;;;;;;;;6323214;28;20059;-58
2022/05/05 12:42:21;;;;;;;5.28;3.55;;;;;;;;;;6328381;27;20071;-59
2022/05/05 12:45:27;;;;;;;6.55;3.78;;;;;;;;;;6325252;28;20054;-60
2022/05/05 12:48:27;;;;;;;5.95;3.60;;;;;;;;;;6325704;28;20474;-59
2022/05/05 12:51:30;;;;;;;5.43;3.60;;;;;;;;;;6323422;27;20043;-59
2022/05/05 13:01:20;;;;;;;4.47;3.20;;;;;;;;;;6320731;27;20878;-59
2022/05/05 13:04:21;;;;;;;6.15;3.28;;;;;;;;;;6325285;27;20129;-60
2022/05/05 13:07:23;;;;;;;5.47;3.15;;;;;;;;;;6320431;28;20043;-60
2022/05/05 13:10:24;;;;;;;6.43;3.58;;;;;;;;;;6321347;28;20567;-59
2022/05/05 13:13:24;;;;;;;4.83;3.20;;;;;;;;;;6325243;28;20051;-59
2022/05/05 13:16:28;;;;;;;6.30;3.30;;;;;;;;;;6324241;28;20055;-59
2022/05/05 13:19:29;;;;;;;5.85;3.10;;;;;;;;;;6320741;28;20685;-58
2022/05/05 13:22:29;;;;;;;7.73;3.37;;;;;;;;;;6326350;28;20135;-59
2022/05/05 13:25:30;;;;;;;7.03;3.63;;;;;;;;;;6323600;28;20082;-59
2022/05/05 13:28:34;;;;;;;10.07;4.60;;;;;;;;;;6322739;28;20051;-59
2022/05/05 13:31:35;;;;;;;5.28;3.45;;;;;;;;;;6323572;28;20451;-59
2022/05/05 13:34:36;;;;;;;5.30;3.38;;;;;;;;;;6321384;28;20518;-59
2022/05/05 13:37:37;;;;;;;6.03;3.50;;;;;;;;;;6322727;28;20063;-59
2022/05/05 13:40:38;;;;;;;5.47;3.72;;;;;;;;;;6321183;28;20181;-59
2022/05/05 13:43:40;;;;;;;6.90;3.70;;;;;;;;;;6323076;28;20719;-60
2022/05/05 13:46:41;;;;;;;7.10;4.10;;;;;;;;;;6317147;28;20089;-63
2022/05/05 13:49:42;;;;;;;7.57;5.07;;;;;;;;;;6321187;28;20039;-61
2022/05/05 13:52:44;;;;;;;10.30;4.03;;;;;;;;;;6320648;28;20058;-60
2022/05/05 13:55:45;;;;;;;6.15;3.95;;;;;;;;;;6325273;28;20169;-62
2022/05/05 13:58:46;;;;;;;6.93;3.38;;;;;;;;;;6317394;28;20173;-65
2022/05/05 14:01:46;;;;;;;8.50;3.87;;;;;;;;;;6318087;28;20135;-62
2022/05/05 14:04:47;;;;;;;7.80;4.70;;;;;;;;;;6324666;28;20081;-60
2022/05/05 14:14:26;;;;;;;7.28;3.92;;;;;;;;;;6326185;28;20453;-63
2022/05/05 14:17:27;;;;;;;7.27;4.67;;;;;;;;;;6325286;28;20044;-61
2022/05/05 14:20:29;;;;;;;10.40;4.60;;;;;;;;;;6317093;28;20487;-66
2022/05/05 14:23:29;;;;;;;;;;;;;;;;;;6323168;28;20040;-61
2022/05/05 14:26:30;;;;;;;8.98;4.90;;;;;;;;;;6329529;27;20055;-66
2022/05/05 14:29:30;;;;;;;8.13;4.90;;;;;;;;;;6327671;27;20512;-66
2022/05/05 14:32:31;;;;;;;8.10;4.93;;;;;;;;;;6327203;27;20067;-61
2022/05/05 14:35:32;;;;;;;11.97;5.03;;;;;;;;;;6327352;28;20498;-63
2022/05/05 14:38:32;;;;;;;9.93;5.57;;;;;;;;;;6323067;27;20067;-61
2022/05/05 14:41:33;;;;;;;10.97;6.73;;;;;;;;;;6323654;27;20047;-60
2022/05/05 14:44:33;;;;;;;13.17;5.80;;;;;;;;;;6324995;28;20056;-64
2022/05/05 14:47:34;;;;;;;13.10;7.00;;;;;;;;;;6321172;27;20056;-62
2022/05/05 14:50:35;;;;;;;10.60;6.40;;;;;;;;;;6319386;27;20630;-64
2022/05/05 14:53:36;;;;;;;9.60;6.00;;;;;;;;;;6325673;27;20490;-62
2022/05/05 14:56:37;;;;;;;10.30;5.78;;;;;;;;;;6322370;27;20142;-63
2022/05/05 14:59:38;;;;;;;10.00;5.67;;;;;;;;;;6325011;28;20048;-63
2022/05/05 15:02:39;;;;;;;9.80;5.45;;;;;;;;;;6328400;28;20166;-62
2022/05/05 15:05:39;;;;;;;6.97;5.23;;;;;;;;;;6331879;27;20133;-65
2022/05/05 15:08:40;;;;;;;8.27;5.00;;;;;;;;;;6329524;27;20669;-61
2022/05/05 15:11:40;;;;;;;9.90;5.00;;;;;;;;;;6326276;28;20044;-60
2022/05/05 15:14:41;;;;;;;9.43;5.47;;;;;;;;;;6328144;27;20884;-60
2022/05/05 15:17:43;;;;;;;9.87;5.43;;;;;;;;;;6329959;27;20047;-62
2022/05/05 15:20:43;;;;;;;9.65;6.53;;;;;;;;;;6326281;27;20079;-64
2022/05/05 15:23:44;;;;;;;7.17;5.50;;;;;;;;;;6332192;27;20121;-67
2022/05/05 15:26:45;;;;;;;9.33;5.57;;;;;;;;;;6332353;28;20136;-68
2022/05/05 15:29:47;;;;;;;12.07;5.90;;;;;;;;;;6330726;27;20194;-60
2022/05/05 15:32:47;;;;;;;10.52;5.70;;;;;;;;;;6331590;28;20828;-60
2022/05/05 15:35:48;;;;;;;8.90;5.27;;;;;;;;;;6326145;28;20051;-61
2022/05/05 15:38:50;;;;;;;8.52;5.60;;;;;;;;;;6328372;27;20066;-63
2022/05/05 15:41:50;;;;;;;12.52;6.93;;;;;;;;;;6326211;28;20036;-66
2022/05/05 15:44:54;;;;;;;10.13;5.73;;;;;;;;;;6326490;28;20410;-60
2022/05/05 15:47:55;;;;;;;9.45;6.13;;;;;;;;;;6327313;28;20043;-60
2022/05/05 15:50:55;;;;;;;7.40;5.40;;;;;;;;;;6325826;27;20040;-63
2022/05/05 15:53:56;;;;;;;12.53;6.90;;;;;;;;;;6323197;28;20044;-58
2022/05/05 15:56:57;;;;;;;10.77;7.57;;;;;;;;;;6322596;28;20552;-64
2022/05/05 16:00:00;;;;;;;16.90;6.53;;;;;;;;;;6321842;27;20502;-59
2022/05/05 16:03:01;;;;;;;9.63;6.22;;;;;;;;;;6321896;28;20170;-60
2022/05/05 16:06:05;;;;;;;9.02;5.50;;;;;;;;;;6322837;28;20111;-62
2022/05/05 16:09:05;;;;;;;10.48;5.90;;;;;;;;;;6326081;27;20081;-59
2022/05/05 16:12:06;;;;;;;15.32;6.03;;;;;;;;;;6326350;28;20479;-59
2022/05/05 16:15:08;;;;;;;8.68;5.72;;;;;;;;;;6326109;28;20063;-60
2022/05/05 16:18:09;;;;;;;13.90;8.02;;;;;;;;;;6327248;28;20457;-63
2022/05/05 16:21:11;;;;;;;19.55;10.05;;;;;;;;;;6325175;28;20086;-62
2022/05/05 16:24:11;;;;;;;19.13;10.02;;;;;;;;;;6327392;28;20061;-60
2022/05/05 16:30:31;;;;;;;11.57;7.60;;;;;;;;;;6323045;27;20081;-63
2022/05/05 16:33:32;;;;;;;13.77;7.78;;;;;;;;;;6326484;28;20040;-62
2022/05/05 16:36:33;;;;;;;18.63;8.80;;;;;;;;;;6326815;28;20053;-62
2022/05/05 16:39:33;;;;;;;13.02;8.75;;;;;;;;;;6325144;28;20055;-65
2022/05/05 16:42:35;;;;;;;17.60;10.20;;;;;;;;;;6324996;28;20039;-59
2022/05/05 16:45:37;;;;;;;16.85;9.73;;;;;;;;;;6326637;27;20122;-59
2022/05/05 16:48:40;;;;;;;14.45;9.40;;;;;;;;;;6326091;28;20047;-60
2022/05/05 16:51:41;;;;;;;11.07;7.18;;;;;;;;;;6324397;28;20112;-60
2022/05/05 16:54:43;;;;;;;15.00;8.30;;;;;;;;;;6329124;28;20482;-65
2022/05/05 16:57:45;;;;;;;13.93;7.35;;;;;;;;;;6328213;28;20422;-61
2022/05/05 17:00:46;;;;;;;11.70;7.72;;;;;;;;;;6327115;27;20054;-61
2022/05/05 17:03:47;;;;;;;12.27;7.50;;;;;;;;;;6339776;27;20048;-60
2022/05/05 17:06:48;;;;;;;12.85;8.25;;;;;;;;;;6331039;27;20162;-59
2022/05/05 17:09:48;;;;;;;13.80;8.88;;;;;;;;;;6329688;27;20047;-59
2022/05/05 17:12:50;;;;;;;13.02;8.70;;;;;;;;;;6339003;27;20051;-59
2022/05/05 17:15:51;;;;;;;9.77;6.75;;;;;;;;;;6329270;27;20069;-67
2022/05/05 17:18:51;;;;;;;23.48;12.45;;;;;;;;;;6334115;27;20101;-66
2022/05/05 17:21:52;;;;;;;12.23;7.55;;;;;;;;;;6337007;27;20042;-66
2022/05/05 17:24:52;;;;;;;11.93;7.85;;;;;;;;;;6335154;27;20418;-62
2022/05/05 17:27:53;;;;;;;16.27;8.63;;;;;;;;;;6339684;27;20035;-62
2022/05/05 17:30:54;;;;;;;11.98;7.95;;;;;;;;;;6323906;27;20069;-61
2022/05/05 17:33:56;;;;;;;14.53;9.17;;;;;;;;;;6337578;27;20134;-59
2022/05/05 17:36:56;;;;;;;20.13;10.73;;;;;;;;;;6337527;28;20052;-61
2022/05/05 17:39:57;;;;;;;20.90;11.30;;;;;;;;;;6332949;28;20043;-61
2022/05/05 17:42:58;;;;;;;21.40;12.23;;;;;;;;;;6331649;28;20044;-60
2022/05/05 17:52:34;;;;;;;23.73;14.32;;;;;;;;;;6331873;28;20054;-64
2022/05/05 17:55:35;;;;;;;28.00;15.88;;;;;;;;;;6335495;28;20047;-60
2022/05/05 17:58:36;;;;;;;26.88;13.85;;;;;;;;;;6334985;27;20158;-64
2022/05/05 18:01:37;;;;;;;32.17;18.02;;;;;;;;;;6332990;27;20050;-64
2022/05/05 18:04:38;;;;;;;34.60;19.63;;;;;;;;;;6335403;27;20043;-68
2022/05/05 18:07:38;;;;;;;33.50;21.63;;;;;;;;;;6338032;27;20053;-56
2022/05/05 18:10:39;;;;;;;34.95;20.77;;;;;;;;;;6330789;27;20418;-58
2022/05/05 18:13:40;;;;;;;32.83;21.33;;;;;;;;;;6341095;27;20055;-58
2022/05/05 18:16:41;;;;;;;34.47;20.48;;;;;;;;;;6340759;27;20059;-60
2022/05/05 18:19:42;;;;;;;38.88;22.40;;;;;;;;;;6338462;27;20062;-60
2022/05/05 18:22:44;;;;;;;60.28;37.83;;;;;;;;;;6334934;27;20048;-55
2022/05/05 18:25:44;;;;;;;37.22;22.92;;;;;;;;;;6337600;27;20063;-57
2022/05/05 18:28:45;;;;;;;48.95;29.60;;;;;;;;;;6335418;27;20496;-61
2022/05/05 18:31:45;;;;;;;41.33;24.90;;;;;;;;;;6339459;27;20043;-58
2022/05/05 18:34:46;;;;;;;36.22;23.70;;;;;;;;;;6345171;27;20059;-58
2022/05/05 18:37:47;;;;;;;39.38;20.00;;;;;;;;;;6337232;27;20067;-63
2022/05/05 18:40:48;;;;;;;32.10;18.88;;;;;;;;;;6336492;27;20052;-55
2022/05/05 18:43:49;;;;;;;28.50;17.55;;;;;;;;;;6334230;27;20108;-58
2022/05/05 18:46:50;;;;;;;23.83;14.63;;;;;;;;;;6337881;27;20082;-59
2022/05/05 18:49:50;;;;;;;28.02;14.82;;;;;;;;;;6339277;27;20042;-58
2022/05/05 18:52:52;;;;;;;25.17;14.80;;;;;;;;;;6343020;27;20051;-63
2022/05/05 18:55:52;;;;;;;22.40;14.25;;;;;;;;;;6336624;27;20100;-63